Time;durP1;ratioP1;P1;durP2;ratioP2;P2;SDS_P1;SDS_P2;PMS_P1;PMS_P2;Temp;Humidity;BMP_temperature;BMP_pressure;BME280_temperature;BME280_humidity;BME280_pressure;Samples;Min_cycle;Max_cycle;Signal;HPM_P1;HPM_P2
2020/12/12 00:01:39;;;;;;;18.90;13.85;;;3.80;98.70;;;;;;4974327;28;20404;-73
2020/12/12 00:04:05;;;;;;;18.35;13.60;;;3.70;98.90;;;;;;4974503;28;20403;-73
2020/12/12 00:06:31;;;;;;;16.33;12.80;;;3.70;99.10;;;;;;4974478;28;20396;-73
2020/12/12 00:08:57;;;;;;;14.52;11.55;;;3.70;98.90;;;;;;4966965;28;20440;-73
2020/12/12 00:11:23;;;;;;;12.98;10.70;;;3.80;98.30;;;;;;4971669;28;20400;-73
2020/12/12 00:13:49;;;;;;;14.25;11.77;;;4.00;97.60;;;;;;4971415;28;20411;-73
2020/12/12 00:16:16;;;;;;;14.07;10.75;;;4.00;97.30;;;;;;4982486;28;20420;-73
2020/12/12 00:18:45;;;;;;;15.73;10.87;;;4.00;97.40;;;;;;4972634;28;20428;-73
2020/12/12 00:21:11;;;;;;;11.63;8.43;;;4.00;97.10;;;;;;4990779;28;20408;-73
2020/12/12 00:23:37;;;;;;;9.45;7.68;;;4.00;96.80;;;;;;4973725;28;20392;-73
2020/12/12 00:26:03;;;;;;;9.05;7.57;;;4.10;96.40;;;;;;4972793;28;20788;-74
2020/12/12 00:28:31;;;;;;;8.87;6.83;;;4.10;96.50;;;;;;4978695;28;20444;-74
2020/12/12 00:30:57;;;;;;;8.65;6.28;;;4.10;96.20;;;;;;4973694;28;20403;-73
2020/12/12 00:33:24;;;;;;;10.13;7.30;;;4.10;96.10;;;;;;4980212;28;20432;-73
2020/12/12 00:35:50;;;;;;;9.02;6.93;;;4.20;95.90;;;;;;4974358;28;20504;-73
2020/12/12 00:38:16;;;;;;;8.13;6.47;;;4.10;95.70;;;;;;4971112;28;20497;-73
2020/12/12 00:40:42;;;;;;;8.18;6.40;;;4.20;95.70;;;;;;4975039;28;20409;-73
2020/12/12 00:43:07;;;;;;;8.53;6.27;;;4.20;95.60;;;;;;4992063;28;20446;-73
2020/12/12 00:45:33;;;;;;;7.78;6.50;;;4.20;95.50;;;;;;4973682;28;20447;-73
2020/12/12 00:47:59;;;;;;;8.00;6.78;;;4.10;95.80;;;;;;4973465;28;20400;-73
2020/12/12 00:50:26;;;;;;;9.50;6.60;;;4.00;95.70;;;;;;4973671;28;20443;-73
2020/12/12 00:52:52;;;;;;;8.30;6.22;;;4.10;95.70;;;;;;4973749;28;20824;-73
2020/12/12 00:55:18;;;;;;;8.18;6.32;;;4.10;95.60;;;;;;4980177;28;20500;-73
2020/12/12 00:57:45;;;;;;;8.30;6.20;;;4.20;95.60;;;;;;4967340;28;20466;-73
2020/12/12 01:00:11;;;;;;;9.55;7.32;;;4.20;95.70;;;;;;4973600;28;20402;-73
2020/12/12 01:02:37;;;;;;;7.70;6.40;;;4.20;95.50;;;;;;4973584;28;20483;-74
2020/12/12 01:05:03;;;;;;;8.23;6.35;;;4.10;95.50;;;;;;4971881;28;20424;-73
2020/12/12 01:07:30;;;;;;;8.77;6.85;;;4.20;95.20;;;;;;4973515;28;20447;-73
2020/12/12 01:09:56;;;;;;;7.82;6.30;;;4.20;95.10;;;;;;4973111;28;20474;-73
2020/12/12 01:12:22;;;;;;;8.18;6.85;;;4.20;95.20;;;;;;4972019;28;20416;-73
2020/12/12 01:14:48;;;;;;;11.77;8.18;;;4.30;95.10;;;;;;4973238;28;20404;-73
2020/12/12 01:17:14;;;;;;;10.77;9.00;;;4.40;95.40;;;;;;4986585;28;20426;-73
2020/12/12 01:19:40;;;;;;;12.70;10.18;;;4.40;95.40;;;;;;4987823;28;20774;-73
2020/12/12 01:22:09;;;;;;;14.38;11.48;;;4.40;95.70;;;;;;4973056;28;20487;-73
2020/12/12 01:24:36;;;;;;;11.95;10.23;;;4.30;96.10;;;;;;4973115;28;20438;-73
2020/12/12 01:27:01;;;;;;;13.85;11.35;;;4.20;96.20;;;;;;4971621;28;20463;-73
2020/12/12 01:29:27;;;;;;;14.68;11.63;;;4.10;96.80;;;;;;4988111;28;20400;-73
2020/12/12 01:31:53;;;;;;;14.50;11.90;;;4.00;97.20;;;;;;4973186;28;20392;-73
2020/12/12 01:34:19;;;;;;;13.18;10.00;;;3.90;97.60;;;;;;4972973;28;20393;-73
2020/12/12 01:36:47;;;;;;;10.77;8.00;;;3.90;97.80;;;;;;4971730;28;20447;-73
2020/12/12 01:39:13;;;;;;;8.52;7.10;;;3.90;97.10;;;;;;4971238;28;20448;-73
2020/12/12 01:41:39;;;;;;;8.30;5.85;;;3.90;97.10;;;;;;4972676;28;20920;-73
2020/12/12 01:44:05;;;;;;;6.07;5.07;;;4.00;96.00;;;;;;4971602;28;20423;-73
2020/12/12 01:46:32;;;;;;;6.03;4.75;;;4.10;95.30;;;;;;4971551;28;20404;-73
2020/12/12 01:48:58;;;;;;;6.53;4.93;;;4.20;95.00;;;;;;4988213;28;20760;-73
2020/12/12 01:51:27;;;;;;;6.03;4.93;;;4.20;94.80;;;;;;4963530;28;20410;-73
2020/12/12 01:53:56;;;;;;;6.75;5.18;;;4.20;94.80;;;;;;4969107;28;20532;-73
2020/12/12 01:56:23;;;;;;;6.60;5.33;;;4.30;94.60;;;;;;4975963;28;20480;-73
2020/12/12 01:58:51;;;;;;;6.90;5.90;;;4.20;94.70;;;;;;4972936;28;20454;-73
2020/12/12 02:01:20;;;;;;;12.38;9.38;;;4.30;94.70;;;;;;4972618;28;20536;-73
2020/12/12 02:03:49;;;;;;;11.15;9.95;;;4.30;95.40;;;;;;4972401;28;20446;-73
2020/12/12 02:06:17;;;;;;;14.20;11.30;;;4.20;96.10;;;;;;4974708;28;20445;-73
2020/12/12 02:08:43;;;;;;;13.77;10.63;;;4.20;96.30;;;;;;4972367;28;20485;-73
2020/12/12 02:11:12;;;;;;;12.40;10.27;;;4.10;96.50;;;;;;4972590;28;20806;-73
2020/12/12 02:13:43;;;;;;;12.85;10.60;;;3.90;97.10;;;;;;4974260;28;20842;-73
2020/12/12 02:16:10;;;;;;;13.05;10.50;;;3.80;97.30;;;;;;4972429;28;20549;-73
2020/12/12 02:18:38;;;;;;;12.00;9.95;;;3.80;97.30;;;;;;4972111;28;20403;-73
2020/12/12 02:21:04;;;;;;;13.07;10.45;;;3.70;97.40;;;;;;4976804;28;20414;-73
2020/12/12 02:23:31;;;;;;;12.90;10.50;;;3.70;97.50;;;;;;4972327;28;20396;-73
2020/12/12 02:25:57;;;;;;;13.82;10.95;;;3.70;97.60;;;;;;4972172;28;20402;-73
2020/12/12 02:28:27;;;;;;;14.18;10.73;;;3.60;98.00;;;;;;4972343;28;20447;-73
2020/12/12 02:30:53;;;;;;;13.10;10.07;;;3.50;98.10;;;;;;4972077;28;20789;-73
2020/12/12 02:33:19;;;;;;;12.25;10.35;;;3.40;98.10;;;;;;4975287;28;20407;-73
2020/12/12 02:35:45;;;;;;;11.32;9.82;;;3.40;98.10;;;;;;4975658;28;20427;-73
2020/12/12 02:38:11;;;;;;;12.10;9.95;;;3.40;98.30;;;;;;4979170;28;20952;-73
2020/12/12 02:40:38;;;;;;;11.17;9.53;;;3.40;98.30;;;;;;4978938;28;20407;-73
2020/12/12 02:43:10;;;;;;;7.95;6.90;;;3.40;98.20;;;;;;4974140;28;20431;-73
2020/12/12 02:45:38;;;;;;;11.02;8.13;;;3.50;97.60;;;;;;4975841;28;20480;-73
2020/12/12 02:48:04;;;;;;;8.20;6.97;;;3.60;97.20;;;;;;4975476;28;20407;-73
2020/12/12 02:50:30;;;;;;;9.70;7.47;;;3.70;97.20;;;;;;4989633;28;20418;-73
2020/12/12 02:52:56;;;;;;;13.97;11.10;;;3.70;97.20;;;;;;4979605;28;20737;-73
2020/12/12 02:55:22;;;;;;;14.35;11.98;;;3.60;98.20;;;;;;4980016;28;20416;-73
2020/12/12 02:57:48;;;;;;;14.77;11.80;;;3.40;98.80;;;;;;4974406;28;20780;-74
2020/12/12 03:00:16;;;;;;;14.82;12.05;;;3.20;99.80;;;;;;4987013;28;20421;-73
2020/12/12 03:02:44;;;;;;;14.27;11.73;;;3.10;99.90;;;;;;4975667;28;20403;-73
2020/12/12 03:05:10;;;;;;;13.95;11.38;;;3.00;99.90;;;;;;4975496;28;20834;-73
2020/12/12 03:07:36;;;;;;;12.23;10.13;;;3.10;99.90;;;;;;4975512;28;20404;-73
2020/12/12 03:10:05;;;;;;;12.70;10.88;;;3.30;99.70;;;;;;4975269;28;20519;-73
2020/12/12 03:12:31;;;;;;;10.77;9.55;;;3.30;99.60;;;;;;4974234;28;20771;-73
2020/12/12 03:14:58;;;;;;;13.55;10.55;;;3.30;99.60;;;;;;4975011;28;20392;-73
2020/12/12 03:17:24;;;;;;;13.35;11.15;;;3.30;99.50;;;;;;4975664;28;20542;-73
2020/12/12 03:19:50;;;;;;;12.43;10.38;;;3.40;99.40;;;;;;4974334;28;20408;-73
2020/12/12 03:22:16;;;;;;;12.60;10.82;;;3.30;99.60;;;;;;4975092;28;20455;-73
2020/12/12 03:24:42;;;;;;;13.98;11.10;;;3.30;99.70;;;;;;4973699;28;20407;-74
2020/12/12 03:27:07;;;;;;;12.07;9.95;;;3.30;99.90;;;;;;4983557;28;20400;-73
2020/12/12 03:29:37;;;;;;;12.13;10.67;;;3.20;99.90;;;;;;4969531;28;20413;-73
2020/12/12 03:32:04;;;;;;;11.98;10.30;;;3.30;99.70;;;;;;4973721;28;20454;-73
2020/12/12 03:34:30;;;;;;;14.85;11.77;;;3.30;99.80;;;;;;4977555;28;20404;-73
2020/12/12 03:36:56;;;;;;;13.27;11.23;;;3.40;99.90;;;;;;4973608;28;20479;-73
2020/12/12 03:39:22;;;;;;;12.43;10.53;;;3.30;99.90;;;;;;4973631;28;20404;-73
2020/12/12 03:41:47;;;;;;;12.07;10.40;;;3.30;99.90;;;;;;4974650;28;20416;-73
2020/12/12 03:44:13;;;;;;;14.88;12.10;;;3.40;99.90;;;;;;4973399;28;20512;-73
2020/12/12 03:46:39;;;;;;;13.57;10.73;;;3.40;99.90;;;;;;4974720;28;20396;-73
2020/12/12 03:49:06;;;;;;;15.23;11.52;;;3.30;99.90;;;;;;4974526;28;20407;-73
2020/12/12 03:51:32;;;;;;;16.63;13.45;;;3.40;99.90;;;;;;4972223;28;20404;-73
2020/12/12 03:53:58;;;;;;;16.45;13.93;;;3.30;99.90;;;;;;4972447;28;20396;-73
2020/12/12 03:56:24;;;;;;;16.93;13.80;;;3.40;99.90;;;;;;4975894;28;20449;-73
2020/12/12 03:58:50;;;;;;;19.42;15.70;;;3.30;99.90;;;;;;4973479;28;20412;-73
2020/12/12 04:01:16;;;;;;;20.88;15.57;;;3.40;99.90;;;;;;4986592;28;20478;-73
2020/12/12 04:03:42;;;;;;;23.63;19.73;;;3.40;99.90;;;;;;4973877;28;20435;-73
2020/12/12 04:06:09;;;;;;;20.30;16.57;;;3.40;99.90;;;;;;4973080;28;20918;-73
2020/12/12 04:08:34;;;;;;;20.92;15.95;;;3.40;99.90;;;;;;4973034;28;20764;-73
2020/12/12 04:11:01;;;;;;;20.88;17.65;;;3.40;99.90;;;;;;4974036;28;20423;-73
2020/12/12 04:13:27;;;;;;;19.60;16.85;;;3.40;99.90;;;;;;4972486;28;20495;-73
2020/12/12 04:15:53;;;;;;;22.20;18.08;;;3.50;99.90;;;;;;4974245;28;20507;-73
2020/12/12 04:18:18;;;;;;;16.73;14.75;;;3.50;99.90;;;;;;4973832;28;20427;-73
2020/12/12 04:20:44;;;;;;;14.27;11.45;;;3.40;99.90;;;;;;4974090;28;20408;-73
2020/12/12 04:23:11;;;;;;;9.20;7.85;;;3.50;99.80;;;;;;4976535;28;20406;-73
2020/12/12 04:25:37;;;;;;;6.95;6.22;;;3.70;98.70;;;;;;4981001;28;20408;-73
2020/12/12 04:28:03;;;;;;;7.70;6.25;;;3.70;98.60;;;;;;4973728;28;20399;-74
2020/12/12 04:30:29;;;;;;;7.72;5.82;;;3.80;98.20;;;;;;4973866;28;20435;-73
2020/12/12 04:32:55;;;;;;;7.13;5.95;;;;;;;;;;4974118;28;20400;-73
2020/12/12 04:35:21;;;;;;;6.77;5.90;;;3.80;98.40;;;;;;4972631;28;20489;-73
2020/12/12 04:37:47;;;;;;;7.00;5.40;;;4.00;97.20;;;;;;4986080;28;20742;-73
2020/12/12 04:40:15;;;;;;;8.05;6.22;;;3.90;97.30;;;;;;4973826;28;20396;-73
2020/12/12 04:42:42;;;;;;;7.28;5.82;;;4.00;96.80;;;;;;4973383;28;20461;-73
2020/12/12 04:45:09;;;;;;;7.05;5.88;;;4.00;96.80;;;;;;4973558;28;20400;-73
2020/12/12 04:47:35;;;;;;;8.23;6.35;;;4.10;96.90;;;;;;4988705;28;20412;-73
2020/12/12 04:50:02;;;;;;;7.00;5.95;;;4.00;97.20;;;;;;4973417;28;20399;-73
2020/12/12 04:52:30;;;;;;;7.57;6.03;;;4.00;97.00;;;;;;4974041;28;20446;-73
2020/12/12 04:55:05;;;;;;;7.68;6.10;;;4.00;97.20;;;;;;4973174;28;20898;-73
2020/12/12 04:57:33;;;;;;;7.28;5.93;;;4.00;97.10;;;;;;4988687;28;20491;-73
2020/12/12 05:00:00;;;;;;;7.90;6.35;;;4.00;97.20;;;;;;4970734;28;20965;-73
2020/12/12 05:02:26;;;;;;;7.10;6.20;;;4.10;96.80;;;;;;4982033;28;20416;-73
2020/12/12 05:04:52;;;;;;;6.68;5.75;;;4.00;96.70;;;;;;4971898;28;20408;-73
2020/12/12 05:07:18;;;;;;;6.88;5.70;;;4.10;96.70;;;;;;4972136;28;20433;-73
2020/12/12 05:09:44;;;;;;;6.63;5.60;;;4.10;96.60;;;;;;4988152;28;20438;-73
2020/12/12 05:12:13;;;;;;;7.43;6.28;;;4.10;96.30;;;;;;4971831;28;20404;-74
2020/12/12 05:14:39;;;;;;;6.55;5.45;;;4.10;96.40;;;;;;4972590;28;20520;-73
2020/12/12 05:17:07;;;;;;;6.53;5.10;;;4.20;96.10;;;;;;4984144;28;20460;-73
2020/12/12 05:19:33;;;;;;;7.15;5.63;;;4.20;96.10;;;;;;4982436;28;20423;-73
2020/12/12 05:22:02;;;;;;;8.00;6.50;;;4.10;96.40;;;;;;4980657;28;20455;-73
2020/12/12 05:24:29;;;;;;;7.07;6.23;;;4.10;96.10;;;;;;4972569;28;20423;-73
2020/12/12 05:26:59;;;;;;;6.45;5.25;;;3.90;96.40;;;;;;4971326;28;20487;-73
2020/12/12 05:29:25;;;;;;;6.65;5.50;;;3.90;96.50;;;;;;4970983;28;20414;-73
2020/12/12 05:31:57;;;;;;;5.13;4.57;;;3.90;96.40;;;;;;4981645;28;20412;-73
2020/12/12 05:34:24;;;;;;;5.88;4.65;;;4.00;96.00;;;;;;4979642;28;20454;-73
2020/12/12 05:36:50;;;;;;;4.73;4.23;;;4.10;95.80;;;;;;4978663;28;20570;-73
2020/12/12 05:39:17;;;;;;;5.78;4.80;;;4.20;95.60;;;;;;4972988;28;20943;-73
2020/12/12 05:41:44;;;;;;;6.07;5.00;;;4.30;95.40;;;;;;4972837;28;20403;-73
2020/12/12 05:44:10;;;;;;;7.45;5.50;;;4.30;95.30;;;;;;4972913;28;20478;-73
2020/12/12 05:46:38;;;;;;;7.05;5.55;;;4.20;95.60;;;;;;4971878;28;20487;-73
2020/12/12 05:49:06;;;;;;;6.45;5.28;;;4.10;95.70;;;;;;4983637;28;20464;-73
2020/12/12 05:51:32;;;;;;;6.57;5.22;;;4.10;95.60;;;;;;4970548;28;20414;-73
2020/12/12 05:53:59;;;;;;;5.93;5.13;;;4.00;95.90;;;;;;4969652;28;20455;-73
2020/12/12 05:56:26;;;;;;;5.43;4.80;;;4.00;96.00;;;;;;4971923;28;20423;-73
2020/12/12 05:58:53;;;;;;;6.32;4.60;;;4.10;95.80;;;;;;4972284;28;20396;-74
2020/12/12 06:01:21;;;;;;;5.95;4.88;;;4.00;95.80;;;;;;4972872;28;20463;-73
2020/12/12 06:03:51;;;;;;;5.90;4.50;;;4.00;95.90;;;;;;4968957;28;20770;-73
2020/12/12 06:06:23;;;;;;;5.18;4.53;;;4.10;95.40;;;;;;4971229;28;20393;-73
2020/12/12 06:09:03;;;;;;;6.20;4.43;;;4.10;95.50;;;;;;4973131;28;20447;-73
2020/12/12 06:11:30;;;;;;;5.17;4.43;;;4.00;95.70;;;;;;4958701;28;20585;-73
2020/12/12 06:14:02;;;;;;;6.35;4.78;;;4.00;95.60;;;;;;4967726;28;20775;-73
2020/12/12 06:16:30;;;;;;;5.28;4.28;;;4.10;95.50;;;;;;4973065;28;20457;-73
2020/12/12 06:19:10;;;;;;;5.40;4.15;;;4.10;95.50;;;;;;4967203;28;20449;-73
2020/12/12 06:21:39;;;;;;;4.60;4.07;;;4.20;95.30;;;;;;4976261;28;20465;-73
2020/12/12 06:24:07;;;;;;;7.10;4.85;;;4.10;95.30;;;;;;4975389;28;20903;-73
2020/12/12 06:26:51;;;;;;;6.85;4.40;;;4.10;95.40;;;;;;4976493;28;20440;-73
2020/12/12 06:29:18;;;;;;;5.70;4.45;;;4.00;95.40;;;;;;4976210;28;20549;-73
2020/12/12 06:31:45;;;;;;;6.70;4.63;;;4.00;95.50;;;;;;4976276;28;20865;-73
2020/12/12 06:34:11;;;;;;;5.80;5.00;;;4.10;95.40;;;;;;4974175;28;20419;-73
2020/12/12 06:36:44;;;;;;;6.00;4.60;;;4.00;95.60;;;;;;4980050;28;20850;-73
2020/12/12 06:39:21;;;;;;;5.50;4.35;;;4.10;95.30;;;;;;4974784;28;20959;-73
2020/12/12 06:41:49;;;;;;;4.80;4.30;;;4.10;95.00;;;;;;4990624;28;20465;-73
2020/12/12 06:44:33;;;;;;;6.30;4.72;;;4.10;95.00;;;;;;4975887;28;20404;-73
2020/12/12 06:46:59;;;;;;;6.68;4.88;;;4.20;94.80;;;;;;4971572;28;20438;-73
2020/12/12 06:49:25;;;;;;;5.00;4.13;;;4.20;94.80;;;;;;4975846;28;20486;-73
2020/12/12 06:51:52;;;;;;;4.68;3.67;;;4.20;94.60;;;;;;4978178;28;20438;-73
2020/12/12 06:54:19;;;;;;;3.72;3.13;;;4.30;94.50;;;;;;4975928;28;20412;-73
2020/12/12 06:56:45;;;;;;;4.10;3.40;;;4.30;94.30;;;;;;4971703;28;20949;-73
2020/12/12 06:59:27;;;;;;;3.88;3.13;;;4.30;94.30;;;;;;4985363;28;20406;-73
2020/12/12 07:01:54;;;;;;;5.15;4.13;;;4.30;94.10;;;;;;4974752;28;20552;-73
2020/12/12 07:04:25;;;;;;;6.47;4.67;;;4.30;94.20;;;;;;4979697;28;20398;-73
2020/12/12 07:07:00;;;;;;;7.30;5.30;;;4.30;94.10;;;;;;4978928;28;20412;-73
2020/12/12 07:09:27;;;;;;;7.10;5.28;;;4.10;94.50;;;;;;4972022;28;20521;-73
2020/12/12 07:11:54;;;;;;;8.13;5.72;;;4.10;94.70;;;;;;4975205;28;20400;-73
2020/12/12 07:14:20;;;;;;;7.47;4.50;;;4.00;95.00;;;;;;4975061;28;20404;-73
2020/12/12 07:16:46;;;;;;;5.78;4.70;;;4.00;94.80;;;;;;4976539;28;20418;-73
2020/12/12 07:19:13;;;;;;;6.10;4.40;;;4.10;94.60;;;;;;4974831;28;20396;-73
2020/12/12 07:21:39;;;;;;;5.72;4.25;;;4.10;94.60;;;;;;4974018;28;20409;-73
2020/12/12 07:24:06;;;;;;;6.38;4.80;;;4.10;94.40;;;;;;4980907;28;20412;-73
2020/12/12 07:26:32;;;;;;;6.00;5.07;;;4.20;94.30;;;;;;4976117;28;20998;-73
2020/12/12 07:28:59;;;;;;;5.85;4.95;;;4.20;94.10;;;;;;4972852;28;20471;-73
2020/12/12 07:31:25;;;;;;;6.28;4.65;;;4.20;94.10;;;;;;4974134;28;20409;-73
2020/12/12 07:33:51;;;;;;;5.53;4.45;;;4.20;94.00;;;;;;4978184;28;20431;-74
2020/12/12 07:36:17;;;;;;;6.65;4.65;;;4.30;93.80;;;;;;4976893;28;20452;-73
2020/12/12 07:38:43;;;;;;;5.93;4.50;;;4.10;94.30;;;;;;4981021;28;20408;-73
2020/12/12 07:41:12;;;;;;;6.35;5.00;;;4.10;94.20;;;;;;4973599;28;20772;-73
2020/12/12 07:43:50;;;;;;;6.00;4.72;;;4.20;94.00;;;;;;4982128;28;20462;-73
2020/12/12 07:46:16;;;;;;;6.47;4.80;;;4.20;93.90;;;;;;4974760;28;20435;-73
2020/12/12 07:48:42;;;;;;;7.13;5.10;;;4.20;94.10;;;;;;4977844;28;20483;-74
2020/12/12 07:51:12;;;;;;;5.40;4.83;;;4.20;93.90;;;;;;4974881;28;20420;-73
2020/12/12 07:53:38;;;;;;;6.95;4.80;;;4.30;93.70;;;;;;4977394;28;20467;-74
2020/12/12 07:56:05;;;;;;;5.95;5.20;;;4.30;93.50;;;;;;4987094;28;20408;-73
2020/12/12 07:58:36;;;;;;;6.75;5.50;;;4.20;93.80;;;;;;4973070;28;20466;-74
2020/12/12 08:01:04;;;;;;;7.03;5.57;;;4.20;93.80;;;;;;4974708;28;20445;-74
2020/12/12 08:03:30;;;;;;;6.75;5.15;;;4.10;94.30;;;;;;4974321;28;20441;-73
2020/12/12 08:06:06;;;;;;;5.60;4.73;;;4.10;94.20;;;;;;4974522;28;20419;-74
2020/12/12 08:08:32;;;;;;;6.68;4.97;;;4.30;93.90;;;;;;4972831;28;20475;-74
2020/12/12 08:11:00;;;;;;;6.20;4.73;;;4.40;93.10;;;;;;4979050;28;20876;-73
2020/12/12 08:13:27;;;;;;;5.87;4.03;;;4.50;93.00;;;;;;4973953;28;20963;-74
2020/12/12 08:16:03;;;;;;;4.38;3.65;;;4.50;92.60;;;;;;4972905;28;20545;-74
2020/12/12 08:18:30;;;;;;;5.05;3.50;;;4.60;92.30;;;;;;4973900;28;20451;-73
2020/12/12 08:21:09;;;;;;;5.30;4.13;;;4.60;92.50;;;;;;4988578;28;20447;-74
2020/12/12 08:23:37;;;;;;;5.85;4.75;;;4.70;92.20;;;;;;4973893;28;20434;-73
2020/12/12 08:26:03;;;;;;;6.15;4.20;;;4.60;92.50;;;;;;4982348;28;20448;-73
2020/12/12 08:28:29;;;;;;;7.60;4.80;;;4.50;92.60;;;;;;4973607;28;20396;-74
2020/12/12 08:31:09;;;;;;;6.90;4.57;;;4.50;92.70;;;;;;4970361;28;20459;-74
2020/12/12 08:33:35;;;;;;;7.68;5.20;;;4.50;92.70;;;;;;4972401;28;20975;-74
2020/12/12 08:36:11;;;;;;;8.07;5.38;;;4.50;92.60;;;;;;4973434;28;20450;-73
2020/12/12 08:38:37;;;;;;;6.80;4.88;;;4.50;92.70;;;;;;4975278;28;20427;-74
2020/12/12 08:41:11;;;;;;;6.95;5.00;;;4.60;92.40;;;;;;4973840;28;20399;-73
2020/12/12 08:43:37;;;;;;;8.07;5.15;;;4.60;92.50;;;;;;4972204;28;20491;-73
2020/12/12 08:46:03;;;;;;;7.07;5.47;;;4.60;92.60;;;;;;4972449;28;20467;-73
2020/12/12 08:48:34;;;;;;;6.43;4.95;;;4.50;92.50;;;;;;4973713;28;20394;-74
2020/12/12 08:51:01;;;;;;;8.10;5.35;;;4.50;92.80;;;;;;4971069;28;20463;-73
2020/12/12 08:53:33;;;;;;;7.68;5.75;;;4.50;92.80;;;;;;4966296;28;20468;-73
2020/12/12 08:56:04;;;;;;;7.72;5.43;;;4.50;92.80;;;;;;4973539;28;20513;-74
2020/12/12 08:58:35;;;;;;;7.57;5.40;;;4.40;92.90;;;;;;4972334;28;20895;-73
2020/12/12 09:01:18;;;;;;;7.72;5.68;;;4.40;92.80;;;;;;4971454;28;20482;-74
2020/12/12 09:03:57;;;;;;;8.43;5.85;;;4.50;92.60;;;;;;4974083;28;20490;-74
2020/12/12 09:06:23;;;;;;;8.77;6.30;;;4.50;92.50;;;;;;4972855;28;20478;-74
2020/12/12 09:09:03;;;;;;;9.32;6.22;;;4.50;92.70;;;;;;4970906;28;20950;-73
2020/12/12 09:11:31;;;;;;;9.75;6.40;;;4.70;92.50;;;;;;4972662;28;20464;-74
2020/12/12 09:13:57;;;;;;;9.73;6.60;;;4.70;92.30;;;;;;4972706;28;20476;-73
2020/12/12 09:16:24;;;;;;;10.18;7.15;;;4.70;91.90;;;;;;4982878;28;20444;-73
2020/12/12 09:18:52;;;;;;;11.70;7.28;;;4.80;92.00;;;;;;4972186;28;21666;-73
2020/12/12 09:21:18;;;;;;;9.25;6.68;;;4.80;92.20;;;;;;4970407;28;20416;-74
2020/12/12 09:23:44;;;;;;;8.15;6.57;;;4.70;92.30;;;;;;4972807;28;20908;-74
2020/12/12 09:26:10;;;;;;;8.85;5.97;;;4.80;92.50;;;;;;4970350;28;20439;-73
2020/12/12 09:28:36;;;;;;;9.73;6.28;;;4.80;92.40;;;;;;4967836;28;20406;-73
2020/12/12 09:31:03;;;;;;;11.05;7.07;;;4.90;92.30;;;;;;4956926;28;21090;-75
2020/12/12 09:33:29;;;;;;;11.10;7.85;;;4.90;92.20;;;;;;4962177;28;20467;-74
2020/12/12 09:35:56;;;;;;;10.40;7.47;;;4.90;92.30;;;;;;4980650;28;20622;-74
2020/12/12 09:38:22;;;;;;;9.88;6.78;;;5.20;91.30;;;;;;4981120;28;20771;-73
2020/12/12 09:40:52;;;;;;;8.73;6.17;;;5.10;91.20;;;;;;4971312;28;20412;-74
2020/12/12 09:43:19;;;;;;;9.95;7.10;;;5.10;91.80;;;;;;4975896;28;20463;-74
2020/12/12 09:45:45;;;;;;;10.88;7.43;;;5.20;91.30;;;;;;4978991;28;20417;-74
2020/12/12 09:48:12;;;;;;;10.90;7.63;;;5.10;91.70;;;;;;4980488;28;20407;-74
2020/12/12 09:50:38;;;;;;;11.77;7.85;;;5.20;91.20;;;;;;4978767;28;20407;-74
2020/12/12 09:53:06;;;;;;;13.13;8.05;;;5.30;91.30;;;;;;4976599;28;20399;-74
2020/12/12 09:55:33;;;;;;;10.93;7.28;;;5.30;91.10;;;;;;4975616;28;20453;-74
2020/12/12 09:57:59;;;;;;;9.73;7.32;;;5.30;91.50;;;;;;4978723;28;20532;-74
2020/12/12 10:00:26;;;;;;;9.55;6.13;;;5.30;91.00;;;;;;4976085;28;20486;-74
2020/12/12 10:02:53;;;;;;;8.95;6.28;;;5.30;90.50;;;;;;4974862;28;20496;-74
2020/12/12 10:05:19;;;;;;;10.75;7.40;;;5.40;90.60;;;;;;4989684;28;20466;-74
2020/12/12 10:07:45;;;;;;;9.45;6.55;;;5.40;90.70;;;;;;4981520;28;20403;-74
2020/12/12 10:10:11;;;;;;;9.33;6.83;;;5.30;90.90;;;;;;4977509;28;20406;-74
2020/12/12 10:12:37;;;;;;;10.15;7.47;;;5.30;90.80;;;;;;4980429;28;20470;-74
2020/12/12 10:15:04;;;;;;;11.07;7.57;;;5.40;91.10;;;;;;4976106;28;20901;-74
2020/12/12 10:17:30;;;;;;;10.77;7.57;;;5.40;90.70;;;;;;4976414;28;20506;-74
2020/12/12 10:19:56;;;;;;;11.00;7.43;;;5.50;90.60;;;;;;4975202;28;20404;-77
2020/12/12 10:22:22;;;;;;;8.73;5.95;;;5.60;90.60;;;;;;4975991;28;20451;-74
2020/12/12 10:24:48;;;;;;;9.35;5.93;;;5.60;90.40;;;;;;4976332;28;20403;-74
2020/12/12 10:27:15;;;;;;;8.27;6.40;;;5.80;89.00;;;;;;4984519;28;20400;-74
2020/12/12 10:29:41;;;;;;;10.33;7.20;;;5.90;89.00;;;;;;4976256;28;20432;-74
2020/12/12 10:32:07;;;;;;;9.52;7.00;;;6.00;88.90;;;;;;4980540;28;20427;-74
2020/12/12 10:34:33;;;;;;;9.88;6.88;;;6.10;88.00;;;;;;4974907;28;20458;-74
2020/12/12 10:36:59;;;;;;;9.63;7.07;;;6.00;89.60;;;;;;4981278;28;20416;-74
2020/12/12 10:39:31;;;;;;;9.77;6.47;;;6.00;89.30;;;;;;4985855;28;20459;-74
2020/12/12 10:41:58;;;;;;;10.30;7.32;;;6.10;88.80;;;;;;4988202;28;20424;-74
2020/12/12 10:44:25;;;;;;;11.38;6.80;;;6.10;88.50;;;;;;4974757;28;20488;-74
2020/12/12 10:46:51;;;;;;;9.40;6.50;;;6.20;88.70;;;;;;4975714;28;20393;-74
2020/12/12 10:49:17;;;;;;;6.88;5.35;;;6.40;87.80;;;;;;4975719;28;20392;-74
2020/12/12 10:51:52;;;;;;;8.65;5.57;;;6.60;87.50;;;;;;4974578;28;20583;-74
2020/12/12 10:54:18;;;;;;;7.93;5.57;;;6.90;85.80;;;;;;4975222;28;20419;-74
2020/12/12 10:56:44;;;;;;;7.72;5.50;;;7.20;86.30;;;;;;4978160;28;20431;-74
2020/12/12 10:59:10;;;;;;;8.95;5.90;;;;;;;;;;4975936;28;20951;-74
2020/12/12 11:01:37;;;;;;;6.88;4.63;;;7.50;84.60;;;;;;4975496;28;20410;-74
2020/12/12 11:04:03;;;;;;;5.72;3.72;;;8.10;79.30;;;;;;4989468;28;20410;-74
2020/12/12 11:06:29;;;;;;;6.38;4.50;;;8.20;78.50;;;;;;4979386;28;20404;-74
2020/12/12 11:08:55;;;;;;;6.18;4.10;;;8.30;76.80;;;;;;4975305;28;20840;-74
2020/12/12 11:11:21;;;;;;;4.80;3.60;;;8.20;76.30;;;;;;4983843;28;20509;-74
2020/12/12 11:13:47;;;;;;;6.20;4.00;;;8.10;76.60;;;;;;4975288;28;20408;-74
2020/12/12 11:16:18;;;;;;;6.22;4.47;;;8.00;77.60;;;;;;4975464;28;20400;-74
2020/12/12 11:18:47;;;;;;;7.15;4.38;;;8.00;77.80;;;;;;4980240;28;20806;-74
2020/12/12 11:21:17;;;;;;;6.03;4.17;;;7.90;79.20;;;;;;4990110;28;20865;-75
2020/12/12 11:23:42;;;;;;;5.95;4.97;;;7.90;80.30;;;;;;4973745;28;20404;-75
2020/12/12 11:26:08;;;;;;;6.63;4.30;;;8.00;80.30;;;;;;4990297;28;20459;-74
2020/12/12 11:28:34;;;;;;;5.67;4.10;;;8.10;80.50;;;;;;4978053;28;20409;-75
2020/12/12 11:31:00;;;;;;;;;;;8.10;81.40;;;;;;4975279;28;20090;-75
2020/12/12 11:33:25;;;;;;;;;;;8.10;79.20;;;;;;4991489;28;20345;-74
2020/12/12 11:36:25;;;;;;;;;;;8.20;80.40;;;;;;4975258;28;19957;-75
2020/12/12 11:47:06;;;;;;;6.47;4.10;;;;;;;;;;4974842;28;20559;-75
2020/12/12 11:49:32;;;;;;;6.15;4.57;;;;;;;;;;4973528;28;20412;-75
2020/12/12 11:51:59;;;;;;;4.70;4.15;;;8.30;80.60;;;;;;4972748;28;20422;-75
2020/12/12 11:54:25;;;;;;;18.27;11.98;;;;;;;;;;4973387;28;20409;-74
2020/12/12 11:56:51;;;;;;;23.10;14.23;;;8.60;80.20;;;;;;4974485;28;20420;-74
2020/12/12 11:59:16;;;;;;;8.35;5.78;;;8.50;82.30;;;;;;4989369;28;20408;-74
2020/12/12 12:01:42;;;;;;;5.00;4.10;;;8.40;83.70;;;;;;4974264;28;20431;-74
2020/12/12 12:04:08;;;;;;;6.38;4.50;;;8.40;82.60;;;;;;4988636;28;20491;-74
2020/12/12 12:06:34;;;;;;;5.68;3.75;;;8.40;83.90;;;;;;4974136;28;20503;-74
2020/12/12 12:11:34;;;;;;;5.88;4.18;;;8.50;83.30;;;;;;4974529;28;20919;-74
2020/12/12 12:14:01;;;;;;;5.25;4.22;;;;;;;;;;4973557;28;20411;-75
2020/12/12 12:16:28;;;;;;;4.40;3.22;;;;;;;;;;4976118;28;20903;-74
2020/12/12 12:18:54;;;;;;;4.13;3.57;;;;;;;;;;4975424;28;20404;-74
2020/12/12 12:21:21;;;;;;;5.03;3.70;;;;;;;;;;4974405;28;20404;-74
2020/12/12 12:23:47;;;;;;;4.25;3.65;;;;;;;;;;4973945;28;20411;-74
2020/12/12 12:26:15;;;;;;;4.20;3.80;;;;;;;;;;4973999;28;20888;-75
2020/12/12 12:28:41;;;;;;;6.57;3.85;;;;;;;;;;4972139;28;20408;-74
2020/12/12 12:31:07;;;;;;;4.85;3.72;;;;;;;;;;4977378;28;20491;-74
2020/12/12 12:33:34;;;;;;;3.75;3.30;;;;;;;;;;4967758;28;20443;-74
2020/12/12 12:36:00;;;;;;;4.20;3.22;;;;;;;;;;4964711;28;20920;-75
2020/12/12 12:38:26;;;;;;;3.87;3.20;;;;;;;;;;4972765;28;20516;-75
2020/12/12 12:40:52;;;;;;;3.47;2.95;;;;;;;;;;4976026;28;20464;-75
2020/12/12 12:43:19;;;;;;;3.60;3.17;;;;;;;;;;4973340;28;20412;-74
2020/12/12 12:45:46;;;;;;;5.15;3.60;;;;;;;;;;4974451;28;20420;-74
2020/12/12 12:48:12;;;;;;;3.55;2.92;;;;;;;;;;4973220;28;20402;-75
2020/12/12 12:50:38;;;;;;;4.90;3.50;;;;;;;;;;4961063;28;20408;-75
2020/12/12 12:53:06;;;;;;;5.60;4.20;;;;;;;;;;4970702;28;20471;-75
2020/12/12 12:55:32;;;;;;;5.20;3.80;;;;;;;;;;4970842;28;20507;-75
2020/12/12 12:57:58;;;;;;;4.82;3.67;;;;;;;;;;4984737;28;20424;-74
2020/12/12 13:00:26;;;;;;;4.55;3.88;;;;;;;;;;4973867;28;20408;-74
2020/12/12 13:02:52;;;;;;;3.13;2.70;;;;;;;;;;4972388;28;20410;-74
2020/12/12 13:05:18;;;;;;;3.47;2.85;;;;;;;;;;4971543;28;20408;-74
2020/12/12 13:07:44;;;;;;;3.70;3.20;;;;;;;;;;4971945;28;20463;-74
2020/12/12 13:10:11;;;;;;;4.35;3.63;;;;;;;;;;4971825;28;20411;-74
2020/12/12 13:12:37;;;;;;;4.90;3.53;;;;;;;;;;4988531;28;20427;-74
2020/12/12 13:15:03;;;;;;;5.57;3.92;;;;;;;;;;4985257;28;20736;-75